<?xml version="1.0" encoding="UTF-8" standalone="no" ?>
<gpx xmlns="http://www.topografix.com/GPX/1/1" xmlns:xsi="http://www.w3.org/2001/XMLSchema-instance" xsi:schemaLocation="http://www.topografix.com/GPX/1/1 http://www.topografix.com/GPX/1/1/gpx.xsd" version="1.1" creator="VisuGPX - https://www.visugpx.com">
  <metadata>
    <name>La Barben</name>
    <desc><![CDATA[La Barben, son château, le plateau, et retour par Sufferchoix.
Pour Gransrandonnée par RandoJP
]]></desc>
  </metadata>
  <trk>
    <name><![CDATA[Randonnée du 12/02/2020 à 13:52]]></name>
    <trkseg>
      <trkpt lat="43.62445" lon="5.20424">
        <ele>121</ele>
        <time>2020-02-12T13:52:41+01:00</time>
      </trkpt>
      <trkpt lat="43.62464" lon="5.20441">
        <ele>122</ele>
        <time>2020-02-12T13:54:28+01:00</time>
      </trkpt>
      <trkpt lat="43.6248" lon="5.20465">
        <ele>123</ele>
        <time>2020-02-12T13:54:51+01:00</time>
      </trkpt>
      <trkpt lat="43.62495" lon="5.20489">
        <ele>125</ele>
        <time>2020-02-12T13:55:18+01:00</time>
      </trkpt>
      <trkpt lat="43.62518" lon="5.20485">
        <ele>124</ele>
        <time>2020-02-12T13:55:43+01:00</time>
      </trkpt>
      <trkpt lat="43.6254" lon="5.2048">
        <ele>122</ele>
        <time>2020-02-12T13:56:04+01:00</time>
      </trkpt>
      <trkpt lat="43.62563" lon="5.20485">
        <ele>123</ele>
        <time>2020-02-12T13:56:32+01:00</time>
      </trkpt>
      <trkpt lat="43.62586" lon="5.20487">
        <ele>123</ele>
        <time>2020-02-12T13:56:55+01:00</time>
      </trkpt>
      <trkpt lat="43.62609" lon="5.20488">
        <ele>122</ele>
        <time>2020-02-12T13:57:20+01:00</time>
      </trkpt>
      <trkpt lat="43.62631" lon="5.20484">
        <ele>121</ele>
        <time>2020-02-12T13:58:00+01:00</time>
      </trkpt>
      <trkpt lat="43.62654" lon="5.20484">
        <ele>121</ele>
        <time>2020-02-12T13:58:51+01:00</time>
      </trkpt>
      <trkpt lat="43.62675" lon="5.20495">
        <ele>121</ele>
        <time>2020-02-12T13:59:22+01:00</time>
      </trkpt>
      <trkpt lat="43.62696" lon="5.20511">
        <ele>125</ele>
        <time>2020-02-12T13:59:42+01:00</time>
      </trkpt>
      <trkpt lat="43.6272" lon="5.20512">
        <ele>125</ele>
        <time>2020-02-12T14:00:07+01:00</time>
      </trkpt>
      <trkpt lat="43.62743" lon="5.20515">
        <ele>124</ele>
        <time>2020-02-12T14:00:29+01:00</time>
      </trkpt>
      <trkpt lat="43.62766" lon="5.20511">
        <ele>124</ele>
        <time>2020-02-12T14:01:06+01:00</time>
      </trkpt>
      <trkpt lat="43.62789" lon="5.20504">
        <ele>125</ele>
        <time>2020-02-12T14:01:56+01:00</time>
      </trkpt>
      <trkpt lat="43.62811" lon="5.20507">
        <ele>125</ele>
        <time>2020-02-12T14:02:27+01:00</time>
      </trkpt>
      <trkpt lat="43.62834" lon="5.20508">
        <ele>124</ele>
        <time>2020-02-12T14:02:52+01:00</time>
      </trkpt>
      <trkpt lat="43.62856" lon="5.20517">
        <ele>125</ele>
        <time>2020-02-12T14:03:12+01:00</time>
      </trkpt>
      <trkpt lat="43.62878" lon="5.20528">
        <ele>125</ele>
        <time>2020-02-12T14:03:39+01:00</time>
      </trkpt>
      <trkpt lat="43.62899" lon="5.2054">
        <ele>125</ele>
        <time>2020-02-12T14:04:04+01:00</time>
      </trkpt>
      <trkpt lat="43.6292" lon="5.20529">
        <ele>124</ele>
        <time>2020-02-12T14:04:25+01:00</time>
      </trkpt>
      <trkpt lat="43.62942" lon="5.20519">
        <ele>124</ele>
        <time>2020-02-12T14:04:45+01:00</time>
      </trkpt>
      <trkpt lat="43.62964" lon="5.20512">
        <ele>124</ele>
        <time>2020-02-12T14:05:12+01:00</time>
      </trkpt>
      <trkpt lat="43.62986" lon="5.20507">
        <ele>125</ele>
        <time>2020-02-12T14:05:29+01:00</time>
      </trkpt>
      <trkpt lat="43.63008" lon="5.205">
        <ele>127</ele>
        <time>2020-02-12T14:05:53+01:00</time>
      </trkpt>
      <trkpt lat="43.63031" lon="5.20495">
        <ele>130</ele>
        <time>2020-02-12T14:06:17+01:00</time>
      </trkpt>
      <trkpt lat="43.63052" lon="5.20482">
        <ele>131</ele>
        <time>2020-02-12T14:06:36+01:00</time>
      </trkpt>
      <trkpt lat="43.63069" lon="5.20504">
        <ele>128</ele>
        <time>2020-02-12T14:07:01+01:00</time>
      </trkpt>
      <trkpt lat="43.6308" lon="5.20532">
        <ele>127</ele>
        <time>2020-02-12T14:07:21+01:00</time>
      </trkpt>
      <trkpt lat="43.63096" lon="5.20555">
        <ele>131</ele>
        <time>2020-02-12T14:07:46+01:00</time>
      </trkpt>
      <trkpt lat="43.63106" lon="5.20583">
        <ele>131</ele>
        <time>2020-02-12T14:08:07+01:00</time>
      </trkpt>
      <trkpt lat="43.63118" lon="5.20609">
        <ele>131</ele>
        <time>2020-02-12T14:08:32+01:00</time>
      </trkpt>
      <trkpt lat="43.63119" lon="5.20641">
        <ele>131</ele>
        <time>2020-02-12T14:08:48+01:00</time>
      </trkpt>
      <trkpt lat="43.63118" lon="5.20672">
        <ele>132</ele>
        <time>2020-02-12T14:09:12+01:00</time>
      </trkpt>
      <trkpt lat="43.63117" lon="5.20705">
        <ele>132</ele>
        <time>2020-02-12T14:09:35+01:00</time>
      </trkpt>
      <trkpt lat="43.63107" lon="5.20733">
        <ele>133</ele>
        <time>2020-02-12T14:09:56+01:00</time>
      </trkpt>
      <trkpt lat="43.63098" lon="5.20763">
        <ele>134</ele>
        <time>2020-02-12T14:10:18+01:00</time>
      </trkpt>
      <trkpt lat="43.63098" lon="5.20796">
        <ele>135</ele>
        <time>2020-02-12T14:10:57+01:00</time>
      </trkpt>
      <trkpt lat="43.63102" lon="5.20827">
        <ele>136</ele>
        <time>2020-02-12T14:11:20+01:00</time>
      </trkpt>
      <trkpt lat="43.63115" lon="5.20853">
        <ele>138</ele>
        <time>2020-02-12T14:11:40+01:00</time>
      </trkpt>
      <trkpt lat="43.63136" lon="5.20868">
        <ele>137</ele>
        <time>2020-02-12T14:12:07+01:00</time>
      </trkpt>
      <trkpt lat="43.63158" lon="5.20879">
        <ele>137</ele>
        <time>2020-02-12T14:12:28+01:00</time>
      </trkpt>
      <trkpt lat="43.63181" lon="5.20873">
        <ele>134</ele>
        <time>2020-02-12T14:12:56+01:00</time>
      </trkpt>
      <trkpt lat="43.63203" lon="5.2086">
        <ele>134</ele>
        <time>2020-02-12T14:13:18+01:00</time>
      </trkpt>
      <trkpt lat="43.63226" lon="5.20853">
        <ele>135</ele>
        <time>2020-02-12T14:13:40+01:00</time>
      </trkpt>
      <trkpt lat="43.63248" lon="5.20844">
        <ele>135</ele>
        <time>2020-02-12T14:14:04+01:00</time>
      </trkpt>
      <trkpt lat="43.63269" lon="5.20832">
        <ele>135</ele>
        <time>2020-02-12T14:14:29+01:00</time>
      </trkpt>
      <trkpt lat="43.63288" lon="5.20814">
        <ele>136</ele>
        <time>2020-02-12T14:14:51+01:00</time>
      </trkpt>
      <trkpt lat="43.63309" lon="5.208">
        <ele>136</ele>
        <time>2020-02-12T14:15:17+01:00</time>
      </trkpt>
      <trkpt lat="43.63331" lon="5.2079">
        <ele>136</ele>
        <time>2020-02-12T14:15:36+01:00</time>
      </trkpt>
      <trkpt lat="43.63353" lon="5.20794">
        <ele>136</ele>
        <time>2020-02-12T14:15:55+01:00</time>
      </trkpt>
      <trkpt lat="43.63371" lon="5.20812">
        <ele>136</ele>
        <time>2020-02-12T14:16:18+01:00</time>
      </trkpt>
      <trkpt lat="43.6339" lon="5.20833">
        <ele>136</ele>
        <time>2020-02-12T14:16:39+01:00</time>
      </trkpt>
      <trkpt lat="43.63407" lon="5.20855">
        <ele>136</ele>
        <time>2020-02-12T14:17:00+01:00</time>
      </trkpt>
      <trkpt lat="43.63415" lon="5.20885">
        <ele>136</ele>
        <time>2020-02-12T14:17:20+01:00</time>
      </trkpt>
      <trkpt lat="43.63425" lon="5.20914">
        <ele>136</ele>
        <time>2020-02-12T14:17:44+01:00</time>
      </trkpt>
      <trkpt lat="43.63433" lon="5.20943">
        <ele>139</ele>
        <time>2020-02-12T14:18:11+01:00</time>
      </trkpt>
      <trkpt lat="43.63446" lon="5.20969">
        <ele>140</ele>
        <time>2020-02-12T14:18:30+01:00</time>
      </trkpt>
      <trkpt lat="43.63461" lon="5.20992">
        <ele>140</ele>
        <time>2020-02-12T14:18:54+01:00</time>
      </trkpt>
      <trkpt lat="43.63475" lon="5.21017">
        <ele>142</ele>
        <time>2020-02-12T14:19:10+01:00</time>
      </trkpt>
      <trkpt lat="43.63489" lon="5.21041">
        <ele>142</ele>
        <time>2020-02-12T14:19:40+01:00</time>
      </trkpt>
      <trkpt lat="43.63504" lon="5.21064">
        <ele>140</ele>
        <time>2020-02-12T14:20:00+01:00</time>
      </trkpt>
      <trkpt lat="43.63524" lon="5.2108">
        <ele>140</ele>
        <time>2020-02-12T14:20:25+01:00</time>
      </trkpt>
      <trkpt lat="43.63543" lon="5.21101">
        <ele>140</ele>
        <time>2020-02-12T14:20:49+01:00</time>
      </trkpt>
      <trkpt lat="43.63558" lon="5.21125">
        <ele>140</ele>
        <time>2020-02-12T14:21:10+01:00</time>
      </trkpt>
      <trkpt lat="43.63574" lon="5.21149">
        <ele>139</ele>
        <time>2020-02-12T14:21:34+01:00</time>
      </trkpt>
      <trkpt lat="43.63588" lon="5.21173">
        <ele>141</ele>
        <time>2020-02-12T14:21:54+01:00</time>
      </trkpt>
      <trkpt lat="43.63596" lon="5.21202">
        <ele>143</ele>
        <time>2020-02-12T14:22:15+01:00</time>
      </trkpt>
      <trkpt lat="43.63603" lon="5.21233">
        <ele>143</ele>
        <time>2020-02-12T14:22:37+01:00</time>
      </trkpt>
      <trkpt lat="43.63609" lon="5.21264">
        <ele>145</ele>
        <time>2020-02-12T14:23:00+01:00</time>
      </trkpt>
      <trkpt lat="43.636" lon="5.21293">
        <ele>145</ele>
        <time>2020-02-12T14:23:26+01:00</time>
      </trkpt>
      <trkpt lat="43.63587" lon="5.2132">
        <ele>144</ele>
        <time>2020-02-12T14:23:49+01:00</time>
      </trkpt>
      <trkpt lat="43.63578" lon="5.21348">
        <ele>142</ele>
        <time>2020-02-12T14:24:09+01:00</time>
      </trkpt>
      <trkpt lat="43.63567" lon="5.21377">
        <ele>141</ele>
        <time>2020-02-12T14:24:30+01:00</time>
      </trkpt>
      <trkpt lat="43.63556" lon="5.21405">
        <ele>141</ele>
        <time>2020-02-12T14:24:56+01:00</time>
      </trkpt>
      <trkpt lat="43.63542" lon="5.21429">
        <ele>142</ele>
        <time>2020-02-12T14:25:15+01:00</time>
      </trkpt>
      <trkpt lat="43.63527" lon="5.21453">
        <ele>141</ele>
        <time>2020-02-12T14:25:37+01:00</time>
      </trkpt>
      <trkpt lat="43.63513" lon="5.21478">
        <ele>141</ele>
        <time>2020-02-12T14:25:57+01:00</time>
      </trkpt>
      <trkpt lat="43.63498" lon="5.215">
        <ele>139</ele>
        <time>2020-02-12T14:26:18+01:00</time>
      </trkpt>
      <trkpt lat="43.63497" lon="5.21533">
        <ele>141</ele>
        <time>2020-02-12T14:26:38+01:00</time>
      </trkpt>
      <trkpt lat="43.63506" lon="5.21562">
        <ele>143</ele>
        <time>2020-02-12T14:27:01+01:00</time>
      </trkpt>
      <trkpt lat="43.63521" lon="5.21586">
        <ele>143</ele>
        <time>2020-02-12T14:27:19+01:00</time>
      </trkpt>
      <trkpt lat="43.63532" lon="5.21615">
        <ele>144</ele>
        <time>2020-02-12T14:27:44+01:00</time>
      </trkpt>
      <trkpt lat="43.63549" lon="5.21635">
        <ele>144</ele>
        <time>2020-02-12T14:28:03+01:00</time>
      </trkpt>
      <trkpt lat="43.63564" lon="5.2166">
        <ele>144</ele>
        <time>2020-02-12T14:28:26+01:00</time>
      </trkpt>
      <trkpt lat="43.63575" lon="5.21689">
        <ele>143</ele>
        <time>2020-02-12T14:28:47+01:00</time>
      </trkpt>
      <trkpt lat="43.63596" lon="5.21699">
        <ele>143</ele>
        <time>2020-02-12T14:29:12+01:00</time>
      </trkpt>
      <trkpt lat="43.63619" lon="5.21696">
        <ele>143</ele>
        <time>2020-02-12T14:29:36+01:00</time>
      </trkpt>
      <trkpt lat="43.6364" lon="5.21709">
        <ele>143</ele>
        <time>2020-02-12T14:30:38+01:00</time>
      </trkpt>
      <trkpt lat="43.6366" lon="5.21723">
        <ele>142</ele>
        <time>2020-02-12T14:31:06+01:00</time>
      </trkpt>
      <trkpt lat="43.63664" lon="5.21755">
        <ele>141</ele>
        <time>2020-02-12T14:31:32+01:00</time>
      </trkpt>
      <trkpt lat="43.63685" lon="5.21767">
        <ele>143</ele>
        <time>2020-02-12T14:33:24+01:00</time>
      </trkpt>
      <trkpt lat="43.63706" lon="5.21777">
        <ele>144</ele>
        <time>2020-02-12T14:34:06+01:00</time>
      </trkpt>
      <trkpt lat="43.63728" lon="5.21789">
        <ele>145</ele>
        <time>2020-02-12T14:34:32+01:00</time>
      </trkpt>
      <trkpt lat="43.63751" lon="5.21792">
        <ele>148</ele>
        <time>2020-02-12T14:34:55+01:00</time>
      </trkpt>
      <trkpt lat="43.63776" lon="5.21795">
        <ele>148</ele>
        <time>2020-02-12T14:35:11+01:00</time>
      </trkpt>
      <trkpt lat="43.63799" lon="5.21792">
        <ele>149</ele>
        <time>2020-02-12T14:35:37+01:00</time>
      </trkpt>
      <trkpt lat="43.63823" lon="5.21792">
        <ele>149</ele>
        <time>2020-02-12T14:36:02+01:00</time>
      </trkpt>
      <trkpt lat="43.63846" lon="5.21791">
        <ele>152</ele>
        <time>2020-02-12T14:36:22+01:00</time>
      </trkpt>
      <trkpt lat="43.63869" lon="5.21788">
        <ele>152</ele>
        <time>2020-02-12T14:36:46+01:00</time>
      </trkpt>
      <trkpt lat="43.63891" lon="5.21786">
        <ele>152</ele>
        <time>2020-02-12T14:37:13+01:00</time>
      </trkpt>
      <trkpt lat="43.63914" lon="5.21778">
        <ele>153</ele>
        <time>2020-02-12T14:37:40+01:00</time>
      </trkpt>
      <trkpt lat="43.63936" lon="5.21767">
        <ele>155</ele>
        <time>2020-02-12T14:38:03+01:00</time>
      </trkpt>
      <trkpt lat="43.63959" lon="5.21763">
        <ele>155</ele>
        <time>2020-02-12T14:38:27+01:00</time>
      </trkpt>
      <trkpt lat="43.63981" lon="5.21756">
        <ele>157</ele>
        <time>2020-02-12T14:38:49+01:00</time>
      </trkpt>
      <trkpt lat="43.64003" lon="5.21752">
        <ele>161</ele>
        <time>2020-02-12T14:39:23+01:00</time>
      </trkpt>
      <trkpt lat="43.64026" lon="5.21754">
        <ele>161</ele>
        <time>2020-02-12T14:39:48+01:00</time>
      </trkpt>
      <trkpt lat="43.64043" lon="5.21774">
        <ele>162</ele>
        <time>2020-02-12T14:49:37+01:00</time>
      </trkpt>
      <trkpt lat="43.64059" lon="5.21799">
        <ele>161</ele>
        <time>2020-02-12T14:49:59+01:00</time>
      </trkpt>
      <trkpt lat="43.64068" lon="5.21828">
        <ele>161</ele>
        <time>2020-02-12T14:50:23+01:00</time>
      </trkpt>
      <trkpt lat="43.64078" lon="5.21856">
        <ele>158</ele>
        <time>2020-02-12T14:50:44+01:00</time>
      </trkpt>
      <trkpt lat="43.64092" lon="5.21882">
        <ele>162</ele>
        <time>2020-02-12T14:51:11+01:00</time>
      </trkpt>
      <trkpt lat="43.64107" lon="5.21905">
        <ele>161</ele>
        <time>2020-02-12T14:51:38+01:00</time>
      </trkpt>
      <trkpt lat="43.64116" lon="5.21933">
        <ele>160</ele>
        <time>2020-02-12T14:52:01+01:00</time>
      </trkpt>
      <trkpt lat="43.64139" lon="5.21944">
        <ele>162</ele>
        <time>2020-02-12T14:52:23+01:00</time>
      </trkpt>
      <trkpt lat="43.64163" lon="5.21944">
        <ele>164</ele>
        <time>2020-02-12T14:52:43+01:00</time>
      </trkpt>
      <trkpt lat="43.64186" lon="5.21937">
        <ele>170</ele>
        <time>2020-02-12T14:53:11+01:00</time>
      </trkpt>
      <trkpt lat="43.64209" lon="5.21941">
        <ele>171</ele>
        <time>2020-02-12T14:53:45+01:00</time>
      </trkpt>
      <trkpt lat="43.6423" lon="5.21928">
        <ele>172</ele>
        <time>2020-02-12T14:54:07+01:00</time>
      </trkpt>
      <trkpt lat="43.64253" lon="5.2192">
        <ele>174</ele>
        <time>2020-02-12T14:54:27+01:00</time>
      </trkpt>
      <trkpt lat="43.64275" lon="5.2191">
        <ele>174</ele>
        <time>2020-02-12T14:54:53+01:00</time>
      </trkpt>
      <trkpt lat="43.64293" lon="5.21931">
        <ele>173</ele>
        <time>2020-02-12T14:55:25+01:00</time>
      </trkpt>
      <trkpt lat="43.643" lon="5.21962">
        <ele>173</ele>
        <time>2020-02-12T14:55:50+01:00</time>
      </trkpt>
      <trkpt lat="43.64298" lon="5.21993">
        <ele>173</ele>
        <time>2020-02-12T14:56:10+01:00</time>
      </trkpt>
      <trkpt lat="43.64308" lon="5.22022">
        <ele>173</ele>
        <time>2020-02-12T14:56:31+01:00</time>
      </trkpt>
      <trkpt lat="43.64317" lon="5.22051">
        <ele>174</ele>
        <time>2020-02-12T14:56:52+01:00</time>
      </trkpt>
      <trkpt lat="43.64313" lon="5.22082">
        <ele>174</ele>
        <time>2020-02-12T14:57:13+01:00</time>
      </trkpt>
      <trkpt lat="43.64315" lon="5.22114">
        <ele>174</ele>
        <time>2020-02-12T14:57:33+01:00</time>
      </trkpt>
      <trkpt lat="43.64322" lon="5.22144">
        <ele>175</ele>
        <time>2020-02-12T14:57:53+01:00</time>
      </trkpt>
      <trkpt lat="43.64332" lon="5.22173">
        <ele>176</ele>
        <time>2020-02-12T14:58:15+01:00</time>
      </trkpt>
      <trkpt lat="43.6434" lon="5.22202">
        <ele>176</ele>
        <time>2020-02-12T14:58:37+01:00</time>
      </trkpt>
      <trkpt lat="43.64351" lon="5.2223">
        <ele>176</ele>
        <time>2020-02-12T14:58:55+01:00</time>
      </trkpt>
      <trkpt lat="43.64359" lon="5.22259">
        <ele>176</ele>
        <time>2020-02-12T14:59:10+01:00</time>
      </trkpt>
      <trkpt lat="43.64367" lon="5.22288">
        <ele>176</ele>
        <time>2020-02-12T14:59:35+01:00</time>
      </trkpt>
      <trkpt lat="43.64375" lon="5.22317">
        <ele>176</ele>
        <time>2020-02-12T14:59:55+01:00</time>
      </trkpt>
      <trkpt lat="43.64377" lon="5.22351">
        <ele>176</ele>
        <time>2020-02-12T15:00:18+01:00</time>
      </trkpt>
      <trkpt lat="43.64382" lon="5.22381">
        <ele>176</ele>
        <time>2020-02-12T15:00:38+01:00</time>
      </trkpt>
      <trkpt lat="43.64388" lon="5.22412">
        <ele>176</ele>
        <time>2020-02-12T15:00:55+01:00</time>
      </trkpt>
      <trkpt lat="43.64384" lon="5.22443">
        <ele>178</ele>
        <time>2020-02-12T15:01:20+01:00</time>
      </trkpt>
      <trkpt lat="43.64384" lon="5.22474">
        <ele>178</ele>
        <time>2020-02-12T15:01:43+01:00</time>
      </trkpt>
      <trkpt lat="43.64384" lon="5.22506">
        <ele>180</ele>
        <time>2020-02-12T15:02:04+01:00</time>
      </trkpt>
      <trkpt lat="43.64382" lon="5.22538">
        <ele>180</ele>
        <time>2020-02-12T15:02:27+01:00</time>
      </trkpt>
      <trkpt lat="43.64381" lon="5.22569">
        <ele>180</ele>
        <time>2020-02-12T15:02:49+01:00</time>
      </trkpt>
      <trkpt lat="43.64383" lon="5.22601">
        <ele>180</ele>
        <time>2020-02-12T15:03:07+01:00</time>
      </trkpt>
      <trkpt lat="43.64388" lon="5.22634">
        <ele>180</ele>
        <time>2020-02-12T15:03:30+01:00</time>
      </trkpt>
      <trkpt lat="43.64392" lon="5.22667">
        <ele>180</ele>
        <time>2020-02-12T15:03:49+01:00</time>
      </trkpt>
      <trkpt lat="43.64398" lon="5.22697">
        <ele>180</ele>
        <time>2020-02-12T15:04:13+01:00</time>
      </trkpt>
      <trkpt lat="43.64399" lon="5.22729">
        <ele>180</ele>
        <time>2020-02-12T15:04:37+01:00</time>
      </trkpt>
      <trkpt lat="43.64397" lon="5.22761">
        <ele>177</ele>
        <time>2020-02-12T15:04:56+01:00</time>
      </trkpt>
      <trkpt lat="43.64403" lon="5.22792">
        <ele>175</ele>
        <time>2020-02-12T15:05:19+01:00</time>
      </trkpt>
      <trkpt lat="43.64411" lon="5.22821">
        <ele>173</ele>
        <time>2020-02-12T15:05:40+01:00</time>
      </trkpt>
      <trkpt lat="43.64416" lon="5.22853">
        <ele>172</ele>
        <time>2020-02-12T15:06:05+01:00</time>
      </trkpt>
      <trkpt lat="43.64421" lon="5.22883">
        <ele>174</ele>
        <time>2020-02-12T15:06:50+01:00</time>
      </trkpt>
      <trkpt lat="43.64429" lon="5.22913">
        <ele>175</ele>
        <time>2020-02-12T15:07:08+01:00</time>
      </trkpt>
      <trkpt lat="43.64427" lon="5.22945">
        <ele>177</ele>
        <time>2020-02-12T15:07:27+01:00</time>
      </trkpt>
      <trkpt lat="43.64432" lon="5.22977">
        <ele>179</ele>
        <time>2020-02-12T15:07:51+01:00</time>
      </trkpt>
      <trkpt lat="43.64434" lon="5.23011">
        <ele>180</ele>
        <time>2020-02-12T15:08:21+01:00</time>
      </trkpt>
      <trkpt lat="43.64433" lon="5.23043">
        <ele>179</ele>
        <time>2020-02-12T15:08:42+01:00</time>
      </trkpt>
      <trkpt lat="43.64438" lon="5.23076">
        <ele>179</ele>
        <time>2020-02-12T15:09:05+01:00</time>
      </trkpt>
      <trkpt lat="43.64445" lon="5.23105">
        <ele>178</ele>
        <time>2020-02-12T15:09:35+01:00</time>
      </trkpt>
      <trkpt lat="43.64446" lon="5.23137">
        <ele>177</ele>
        <time>2020-02-12T15:10:01+01:00</time>
      </trkpt>
      <trkpt lat="43.6445" lon="5.23167">
        <ele>177</ele>
        <time>2020-02-12T15:10:19+01:00</time>
      </trkpt>
      <trkpt lat="43.64445" lon="5.23198">
        <ele>177</ele>
        <time>2020-02-12T15:10:42+01:00</time>
      </trkpt>
      <trkpt lat="43.64437" lon="5.23228">
        <ele>177</ele>
        <time>2020-02-12T15:11:03+01:00</time>
      </trkpt>
      <trkpt lat="43.64433" lon="5.2326">
        <ele>178</ele>
        <time>2020-02-12T15:11:25+01:00</time>
      </trkpt>
      <trkpt lat="43.6443" lon="5.23292">
        <ele>178</ele>
        <time>2020-02-12T15:11:51+01:00</time>
      </trkpt>
      <trkpt lat="43.64422" lon="5.23321">
        <ele>179</ele>
        <time>2020-02-12T15:12:14+01:00</time>
      </trkpt>
      <trkpt lat="43.64412" lon="5.23349">
        <ele>179</ele>
        <time>2020-02-12T15:12:32+01:00</time>
      </trkpt>
      <trkpt lat="43.64399" lon="5.23377">
        <ele>179</ele>
        <time>2020-02-12T15:12:56+01:00</time>
      </trkpt>
      <trkpt lat="43.64388" lon="5.23404">
        <ele>179</ele>
        <time>2020-02-12T15:13:18+01:00</time>
      </trkpt>
      <trkpt lat="43.64375" lon="5.2343">
        <ele>179</ele>
        <time>2020-02-12T15:13:40+01:00</time>
      </trkpt>
      <trkpt lat="43.64364" lon="5.23458">
        <ele>179</ele>
        <time>2020-02-12T15:14:12+01:00</time>
      </trkpt>
      <trkpt lat="43.6435" lon="5.23484">
        <ele>180</ele>
        <time>2020-02-12T15:14:32+01:00</time>
      </trkpt>
      <trkpt lat="43.64349" lon="5.23515">
        <ele>180</ele>
        <time>2020-02-12T15:15:11+01:00</time>
      </trkpt>
      <trkpt lat="43.64335" lon="5.2354">
        <ele>181</ele>
        <time>2020-02-12T15:15:31+01:00</time>
      </trkpt>
      <trkpt lat="43.64321" lon="5.23564">
        <ele>180</ele>
        <time>2020-02-12T15:15:50+01:00</time>
      </trkpt>
      <trkpt lat="43.6432" lon="5.23596">
        <ele>181</ele>
        <time>2020-02-12T15:16:17+01:00</time>
      </trkpt>
      <trkpt lat="43.64313" lon="5.23626">
        <ele>181</ele>
        <time>2020-02-12T15:16:40+01:00</time>
      </trkpt>
      <trkpt lat="43.64306" lon="5.23655">
        <ele>181</ele>
        <time>2020-02-12T15:17:01+01:00</time>
      </trkpt>
      <trkpt lat="43.64284" lon="5.23661">
        <ele>181</ele>
        <time>2020-02-12T15:17:26+01:00</time>
      </trkpt>
      <trkpt lat="43.64264" lon="5.23644">
        <ele>181</ele>
        <time>2020-02-12T15:17:48+01:00</time>
      </trkpt>
      <trkpt lat="43.64245" lon="5.23626">
        <ele>178</ele>
        <time>2020-02-12T15:18:16+01:00</time>
      </trkpt>
      <trkpt lat="43.64223" lon="5.23617">
        <ele>178</ele>
        <time>2020-02-12T15:18:41+01:00</time>
      </trkpt>
      <trkpt lat="43.642" lon="5.23616">
        <ele>177</ele>
        <time>2020-02-12T15:19:03+01:00</time>
      </trkpt>
      <trkpt lat="43.64178" lon="5.23621">
        <ele>177</ele>
        <time>2020-02-12T15:19:28+01:00</time>
      </trkpt>
      <trkpt lat="43.64155" lon="5.23624">
        <ele>174</ele>
        <time>2020-02-12T15:19:49+01:00</time>
      </trkpt>
      <trkpt lat="43.64132" lon="5.23627">
        <ele>174</ele>
        <time>2020-02-12T15:20:09+01:00</time>
      </trkpt>
      <trkpt lat="43.6411" lon="5.23631">
        <ele>173</ele>
        <time>2020-02-12T15:21:25+01:00</time>
      </trkpt>
      <trkpt lat="43.6409" lon="5.23648">
        <ele>173</ele>
        <time>2020-02-12T15:22:06+01:00</time>
      </trkpt>
      <trkpt lat="43.64068" lon="5.23656">
        <ele>170</ele>
        <time>2020-02-12T15:22:25+01:00</time>
      </trkpt>
      <trkpt lat="43.64047" lon="5.23667">
        <ele>171</ele>
        <time>2020-02-12T15:22:54+01:00</time>
      </trkpt>
      <trkpt lat="43.64027" lon="5.23683">
        <ele>170</ele>
        <time>2020-02-12T15:23:22+01:00</time>
      </trkpt>
      <trkpt lat="43.64004" lon="5.2369">
        <ele>169</ele>
        <time>2020-02-12T15:23:46+01:00</time>
      </trkpt>
      <trkpt lat="43.63981" lon="5.23695">
        <ele>166</ele>
        <time>2020-02-12T15:24:08+01:00</time>
      </trkpt>
      <trkpt lat="43.63959" lon="5.23699">
        <ele>166</ele>
        <time>2020-02-12T15:24:46+01:00</time>
      </trkpt>
      <trkpt lat="43.63937" lon="5.2371">
        <ele>166</ele>
        <time>2020-02-12T15:25:14+01:00</time>
      </trkpt>
      <trkpt lat="43.63917" lon="5.23728">
        <ele>166</ele>
        <time>2020-02-12T15:25:30+01:00</time>
      </trkpt>
      <trkpt lat="43.63895" lon="5.23735">
        <ele>168</ele>
        <time>2020-02-12T15:26:12+01:00</time>
      </trkpt>
      <trkpt lat="43.63877" lon="5.23756">
        <ele>169</ele>
        <time>2020-02-12T15:26:53+01:00</time>
      </trkpt>
      <trkpt lat="43.63866" lon="5.23783">
        <ele>169</ele>
        <time>2020-02-12T15:27:19+01:00</time>
      </trkpt>
      <trkpt lat="43.63857" lon="5.23812">
        <ele>170</ele>
        <time>2020-02-12T15:27:43+01:00</time>
      </trkpt>
      <trkpt lat="43.63838" lon="5.2383">
        <ele>170</ele>
        <time>2020-02-12T15:27:58+01:00</time>
      </trkpt>
      <trkpt lat="43.63818" lon="5.23846">
        <ele>173</ele>
        <time>2020-02-12T15:28:15+01:00</time>
      </trkpt>
      <trkpt lat="43.63795" lon="5.23853">
        <ele>174</ele>
        <time>2020-02-12T15:28:47+01:00</time>
      </trkpt>
      <trkpt lat="43.63774" lon="5.23865">
        <ele>175</ele>
        <time>2020-02-12T15:28:58+01:00</time>
      </trkpt>
      <trkpt lat="43.63751" lon="5.23871">
        <ele>175</ele>
        <time>2020-02-12T15:30:07+01:00</time>
      </trkpt>
      <trkpt lat="43.63728" lon="5.23872">
        <ele>176</ele>
        <time>2020-02-12T15:30:31+01:00</time>
      </trkpt>
      <trkpt lat="43.63705" lon="5.23874">
        <ele>176</ele>
        <time>2020-02-12T15:30:47+01:00</time>
      </trkpt>
      <trkpt lat="43.63681" lon="5.23877">
        <ele>176</ele>
        <time>2020-02-12T15:31:08+01:00</time>
      </trkpt>
      <trkpt lat="43.63658" lon="5.23875">
        <ele>178</ele>
        <time>2020-02-12T15:31:29+01:00</time>
      </trkpt>
      <trkpt lat="43.63637" lon="5.23886">
        <ele>179</ele>
        <time>2020-02-12T15:31:54+01:00</time>
      </trkpt>
      <trkpt lat="43.63617" lon="5.23901">
        <ele>179</ele>
        <time>2020-02-12T15:32:25+01:00</time>
      </trkpt>
      <trkpt lat="43.63594" lon="5.2391">
        <ele>180</ele>
        <time>2020-02-12T15:32:45+01:00</time>
      </trkpt>
      <trkpt lat="43.63572" lon="5.23904">
        <ele>182</ele>
        <time>2020-02-12T15:33:12+01:00</time>
      </trkpt>
      <trkpt lat="43.63549" lon="5.23909">
        <ele>183</ele>
        <time>2020-02-12T15:33:26+01:00</time>
      </trkpt>
      <trkpt lat="43.63546" lon="5.23877">
        <ele>184</ele>
        <time>2020-02-12T15:36:31+01:00</time>
      </trkpt>
      <trkpt lat="43.63541" lon="5.23845">
        <ele>184</ele>
        <time>2020-02-12T15:37:01+01:00</time>
      </trkpt>
      <trkpt lat="43.63519" lon="5.23835">
        <ele>185</ele>
        <time>2020-02-12T15:37:30+01:00</time>
      </trkpt>
      <trkpt lat="43.63496" lon="5.23829">
        <ele>187</ele>
        <time>2020-02-12T15:37:53+01:00</time>
      </trkpt>
      <trkpt lat="43.63485" lon="5.23801">
        <ele>187</ele>
        <time>2020-02-12T15:38:13+01:00</time>
      </trkpt>
      <trkpt lat="43.63487" lon="5.2377">
        <ele>187</ele>
        <time>2020-02-12T15:38:33+01:00</time>
      </trkpt>
      <trkpt lat="43.63495" lon="5.2374">
        <ele>187</ele>
        <time>2020-02-12T15:38:53+01:00</time>
      </trkpt>
      <trkpt lat="43.63513" lon="5.23717">
        <ele>187</ele>
        <time>2020-02-12T15:39:12+01:00</time>
      </trkpt>
      <trkpt lat="43.63518" lon="5.23687">
        <ele>188</ele>
        <time>2020-02-12T15:39:45+01:00</time>
      </trkpt>
      <trkpt lat="43.63498" lon="5.2367">
        <ele>190</ele>
        <time>2020-02-12T15:40:02+01:00</time>
      </trkpt>
      <trkpt lat="43.63476" lon="5.23662">
        <ele>191</ele>
        <time>2020-02-12T15:40:24+01:00</time>
      </trkpt>
      <trkpt lat="43.63454" lon="5.23651">
        <ele>191</ele>
        <time>2020-02-12T15:40:44+01:00</time>
      </trkpt>
      <trkpt lat="43.63433" lon="5.2364">
        <ele>192</ele>
        <time>2020-02-12T15:41:02+01:00</time>
      </trkpt>
      <trkpt lat="43.63411" lon="5.23633">
        <ele>194</ele>
        <time>2020-02-12T15:41:21+01:00</time>
      </trkpt>
      <trkpt lat="43.63389" lon="5.23624">
        <ele>194</ele>
        <time>2020-02-12T15:41:40+01:00</time>
      </trkpt>
      <trkpt lat="43.63376" lon="5.23598">
        <ele>195</ele>
        <time>2020-02-12T15:41:58+01:00</time>
      </trkpt>
      <trkpt lat="43.6336" lon="5.23574">
        <ele>195</ele>
        <time>2020-02-12T15:42:25+01:00</time>
      </trkpt>
      <trkpt lat="43.6334" lon="5.23558">
        <ele>195</ele>
        <time>2020-02-12T15:42:42+01:00</time>
      </trkpt>
      <trkpt lat="43.63323" lon="5.23537">
        <ele>195</ele>
        <time>2020-02-12T15:43:02+01:00</time>
      </trkpt>
      <trkpt lat="43.63315" lon="5.23508">
        <ele>194</ele>
        <time>2020-02-12T15:43:21+01:00</time>
      </trkpt>
      <trkpt lat="43.63302" lon="5.2348">
        <ele>192</ele>
        <time>2020-02-12T15:43:41+01:00</time>
      </trkpt>
      <trkpt lat="43.63294" lon="5.23449">
        <ele>190</ele>
        <time>2020-02-12T15:44:04+01:00</time>
      </trkpt>
      <trkpt lat="43.63282" lon="5.23422">
        <ele>189</ele>
        <time>2020-02-12T15:44:33+01:00</time>
      </trkpt>
      <trkpt lat="43.63257" lon="5.23423">
        <ele>188</ele>
        <time>2020-02-12T15:45:34+01:00</time>
      </trkpt>
      <trkpt lat="43.63234" lon="5.23428">
        <ele>187</ele>
        <time>2020-02-12T15:45:47+01:00</time>
      </trkpt>
      <trkpt lat="43.63211" lon="5.23438">
        <ele>187</ele>
        <time>2020-02-12T15:46:15+01:00</time>
      </trkpt>
      <trkpt lat="43.6319" lon="5.2345">
        <ele>187</ele>
        <time>2020-02-12T15:46:34+01:00</time>
      </trkpt>
      <trkpt lat="43.63169" lon="5.23463">
        <ele>188</ele>
        <time>2020-02-12T15:46:56+01:00</time>
      </trkpt>
      <trkpt lat="43.6315" lon="5.23478">
        <ele>186</ele>
        <time>2020-02-12T15:47:16+01:00</time>
      </trkpt>
      <trkpt lat="43.63129" lon="5.23492">
        <ele>185</ele>
        <time>2020-02-12T15:47:28+01:00</time>
      </trkpt>
      <trkpt lat="43.63107" lon="5.23501">
        <ele>190</ele>
        <time>2020-02-12T15:47:52+01:00</time>
      </trkpt>
      <trkpt lat="43.6309" lon="5.2348">
        <ele>184</ele>
        <time>2020-02-12T15:48:20+01:00</time>
      </trkpt>
      <trkpt lat="43.63083" lon="5.2345">
        <ele>180</ele>
        <time>2020-02-12T15:48:37+01:00</time>
      </trkpt>
      <trkpt lat="43.63075" lon="5.23421">
        <ele>178</ele>
        <time>2020-02-12T15:48:59+01:00</time>
      </trkpt>
      <trkpt lat="43.63072" lon="5.2339">
        <ele>179</ele>
        <time>2020-02-12T15:49:22+01:00</time>
      </trkpt>
      <trkpt lat="43.63071" lon="5.23356">
        <ele>179</ele>
        <time>2020-02-12T15:50:48+01:00</time>
      </trkpt>
      <trkpt lat="43.63084" lon="5.2333">
        <ele>178</ele>
        <time>2020-02-12T15:51:12+01:00</time>
      </trkpt>
      <trkpt lat="43.63107" lon="5.23324">
        <ele>180</ele>
        <time>2020-02-12T15:51:35+01:00</time>
      </trkpt>
      <trkpt lat="43.6313" lon="5.23328">
        <ele>180</ele>
        <time>2020-02-12T15:51:57+01:00</time>
      </trkpt>
      <trkpt lat="43.63152" lon="5.23322">
        <ele>181</ele>
        <time>2020-02-12T15:52:13+01:00</time>
      </trkpt>
      <trkpt lat="43.63169" lon="5.23301">
        <ele>181</ele>
        <time>2020-02-12T15:52:34+01:00</time>
      </trkpt>
      <trkpt lat="43.63191" lon="5.23287">
        <ele>181</ele>
        <time>2020-02-12T15:53:03+01:00</time>
      </trkpt>
      <trkpt lat="43.6321" lon="5.2327">
        <ele>181</ele>
        <time>2020-02-12T15:53:23+01:00</time>
      </trkpt>
      <trkpt lat="43.63233" lon="5.23274">
        <ele>181</ele>
        <time>2020-02-12T15:54:02+01:00</time>
      </trkpt>
      <trkpt lat="43.63256" lon="5.23279">
        <ele>181</ele>
        <time>2020-02-12T15:55:01+01:00</time>
      </trkpt>
      <trkpt lat="43.63244" lon="5.23253">
        <ele>182</ele>
        <time>2020-02-12T15:55:57+01:00</time>
      </trkpt>
      <trkpt lat="43.6325" lon="5.23222">
        <ele>185</ele>
        <time>2020-02-12T15:56:33+01:00</time>
      </trkpt>
      <trkpt lat="43.63256" lon="5.23192">
        <ele>187</ele>
        <time>2020-02-12T15:57:03+01:00</time>
      </trkpt>
      <trkpt lat="43.63253" lon="5.23161">
        <ele>191</ele>
        <time>2020-02-12T15:57:26+01:00</time>
      </trkpt>
      <trkpt lat="43.63251" lon="5.23129">
        <ele>192</ele>
        <time>2020-02-12T15:58:45+01:00</time>
      </trkpt>
      <trkpt lat="43.63245" lon="5.23099">
        <ele>193</ele>
        <time>2020-02-12T15:59:07+01:00</time>
      </trkpt>
      <trkpt lat="43.63232" lon="5.23073">
        <ele>195</ele>
        <time>2020-02-12T15:59:23+01:00</time>
      </trkpt>
      <trkpt lat="43.63215" lon="5.23053">
        <ele>194</ele>
        <time>2020-02-12T16:00:28+01:00</time>
      </trkpt>
      <trkpt lat="43.63191" lon="5.23046">
        <ele>194</ele>
        <time>2020-02-12T16:02:53+01:00</time>
      </trkpt>
      <trkpt lat="43.63169" lon="5.23038">
        <ele>194</ele>
        <time>2020-02-12T16:04:17+01:00</time>
      </trkpt>
      <trkpt lat="43.63162" lon="5.23007">
        <ele>196</ele>
        <time>2020-02-12T16:04:53+01:00</time>
      </trkpt>
      <trkpt lat="43.63159" lon="5.22975">
        <ele>196</ele>
        <time>2020-02-12T16:05:15+01:00</time>
      </trkpt>
      <trkpt lat="43.63146" lon="5.22948">
        <ele>197</ele>
        <time>2020-02-12T16:05:39+01:00</time>
      </trkpt>
      <trkpt lat="43.63159" lon="5.22922">
        <ele>198</ele>
        <time>2020-02-12T16:06:04+01:00</time>
      </trkpt>
      <trkpt lat="43.63178" lon="5.22905">
        <ele>197</ele>
        <time>2020-02-12T16:06:27+01:00</time>
      </trkpt>
      <trkpt lat="43.63183" lon="5.22873">
        <ele>196</ele>
        <time>2020-02-12T16:06:50+01:00</time>
      </trkpt>
      <trkpt lat="43.6319" lon="5.22843">
        <ele>196</ele>
        <time>2020-02-12T16:07:23+01:00</time>
      </trkpt>
      <trkpt lat="43.63189" lon="5.22812">
        <ele>196</ele>
        <time>2020-02-12T16:08:10+01:00</time>
      </trkpt>
      <trkpt lat="43.63189" lon="5.2278">
        <ele>196</ele>
        <time>2020-02-12T16:09:20+01:00</time>
      </trkpt>
      <trkpt lat="43.63209" lon="5.22764">
        <ele>195</ele>
        <time>2020-02-12T16:14:14+01:00</time>
      </trkpt>
      <trkpt lat="43.63232" lon="5.22759">
        <ele>195</ele>
        <time>2020-02-12T16:16:15+01:00</time>
      </trkpt>
      <trkpt lat="43.63255" lon="5.22753">
        <ele>193</ele>
        <time>2020-02-12T16:16:45+01:00</time>
      </trkpt>
      <trkpt lat="43.63276" lon="5.22742">
        <ele>187</ele>
        <time>2020-02-12T16:17:09+01:00</time>
      </trkpt>
      <trkpt lat="43.63297" lon="5.2273">
        <ele>184</ele>
        <time>2020-02-12T16:18:01+01:00</time>
      </trkpt>
      <trkpt lat="43.6331" lon="5.22704">
        <ele>183</ele>
        <time>2020-02-12T16:18:32+01:00</time>
      </trkpt>
      <trkpt lat="43.63293" lon="5.22683">
        <ele>184</ele>
        <time>2020-02-12T16:18:59+01:00</time>
      </trkpt>
      <trkpt lat="43.63279" lon="5.22657">
        <ele>182</ele>
        <time>2020-02-12T16:19:27+01:00</time>
      </trkpt>
      <trkpt lat="43.63272" lon="5.22627">
        <ele>181</ele>
        <time>2020-02-12T16:19:49+01:00</time>
      </trkpt>
      <trkpt lat="43.63278" lon="5.22597">
        <ele>179</ele>
        <time>2020-02-12T16:20:13+01:00</time>
      </trkpt>
      <trkpt lat="43.6329" lon="5.22571">
        <ele>175</ele>
        <time>2020-02-12T16:20:39+01:00</time>
      </trkpt>
      <trkpt lat="43.63303" lon="5.22545">
        <ele>174</ele>
        <time>2020-02-12T16:21:16+01:00</time>
      </trkpt>
      <trkpt lat="43.63316" lon="5.22518">
        <ele>174</ele>
        <time>2020-02-12T16:21:41+01:00</time>
      </trkpt>
      <trkpt lat="43.63325" lon="5.2249">
        <ele>172</ele>
        <time>2020-02-12T16:22:03+01:00</time>
      </trkpt>
      <trkpt lat="43.63336" lon="5.22463">
        <ele>168</ele>
        <time>2020-02-12T16:22:26+01:00</time>
      </trkpt>
      <trkpt lat="43.63323" lon="5.22437">
        <ele>169</ele>
        <time>2020-02-12T16:22:55+01:00</time>
      </trkpt>
      <trkpt lat="43.63304" lon="5.22418">
        <ele>169</ele>
        <time>2020-02-12T16:23:27+01:00</time>
      </trkpt>
      <trkpt lat="43.63282" lon="5.2241">
        <ele>168</ele>
        <time>2020-02-12T16:24:02+01:00</time>
      </trkpt>
      <trkpt lat="43.63265" lon="5.22389">
        <ele>168</ele>
        <time>2020-02-12T16:24:36+01:00</time>
      </trkpt>
      <trkpt lat="43.63254" lon="5.22363">
        <ele>168</ele>
        <time>2020-02-12T16:25:11+01:00</time>
      </trkpt>
      <trkpt lat="43.63256" lon="5.22332">
        <ele>169</ele>
        <time>2020-02-12T16:25:36+01:00</time>
      </trkpt>
      <trkpt lat="43.63247" lon="5.22303">
        <ele>173</ele>
        <time>2020-02-12T16:26:01+01:00</time>
      </trkpt>
      <trkpt lat="43.63236" lon="5.22276">
        <ele>173</ele>
        <time>2020-02-12T16:26:33+01:00</time>
      </trkpt>
      <trkpt lat="43.6322" lon="5.22253">
        <ele>173</ele>
        <time>2020-02-12T16:27:00+01:00</time>
      </trkpt>
      <trkpt lat="43.63213" lon="5.22223">
        <ele>172</ele>
        <time>2020-02-12T16:27:32+01:00</time>
      </trkpt>
      <trkpt lat="43.63217" lon="5.22191">
        <ele>171</ele>
        <time>2020-02-12T16:27:57+01:00</time>
      </trkpt>
      <trkpt lat="43.6322" lon="5.2216">
        <ele>169</ele>
        <time>2020-02-12T16:28:22+01:00</time>
      </trkpt>
      <trkpt lat="43.63234" lon="5.22135">
        <ele>169</ele>
        <time>2020-02-12T16:28:46+01:00</time>
      </trkpt>
      <trkpt lat="43.6324" lon="5.22105">
        <ele>168</ele>
        <time>2020-02-12T16:29:08+01:00</time>
      </trkpt>
      <trkpt lat="43.63263" lon="5.22103">
        <ele>163</ele>
        <time>2020-02-12T16:29:35+01:00</time>
      </trkpt>
      <trkpt lat="43.63286" lon="5.22102">
        <ele>161</ele>
        <time>2020-02-12T16:30:01+01:00</time>
      </trkpt>
      <trkpt lat="43.6331" lon="5.22098">
        <ele>159</ele>
        <time>2020-02-12T16:30:47+01:00</time>
      </trkpt>
      <trkpt lat="43.63332" lon="5.22087">
        <ele>157</ele>
        <time>2020-02-12T16:30:57+01:00</time>
      </trkpt>
      <trkpt lat="43.63355" lon="5.22085">
        <ele>155</ele>
        <time>2020-02-12T16:31:18+01:00</time>
      </trkpt>
      <trkpt lat="43.63378" lon="5.22087">
        <ele>154</ele>
        <time>2020-02-12T16:31:37+01:00</time>
      </trkpt>
      <trkpt lat="43.63401" lon="5.22081">
        <ele>153</ele>
        <time>2020-02-12T16:31:59+01:00</time>
      </trkpt>
      <trkpt lat="43.63424" lon="5.22079">
        <ele>151</ele>
        <time>2020-02-12T16:32:20+01:00</time>
      </trkpt>
      <trkpt lat="43.63446" lon="5.22073">
        <ele>150</ele>
        <time>2020-02-12T16:32:43+01:00</time>
      </trkpt>
      <trkpt lat="43.63458" lon="5.22045">
        <ele>150</ele>
        <time>2020-02-12T16:33:28+01:00</time>
      </trkpt>
      <trkpt lat="43.63446" lon="5.22018">
        <ele>151</ele>
        <time>2020-02-12T16:33:54+01:00</time>
      </trkpt>
      <trkpt lat="43.63423" lon="5.22012">
        <ele>152</ele>
        <time>2020-02-12T16:34:19+01:00</time>
      </trkpt>
      <trkpt lat="43.63403" lon="5.21999">
        <ele>155</ele>
        <time>2020-02-12T16:34:45+01:00</time>
      </trkpt>
      <trkpt lat="43.63381" lon="5.21993">
        <ele>157</ele>
        <time>2020-02-12T16:35:03+01:00</time>
      </trkpt>
      <trkpt lat="43.63359" lon="5.21982">
        <ele>158</ele>
        <time>2020-02-12T16:35:22+01:00</time>
      </trkpt>
      <trkpt lat="43.63338" lon="5.21966">
        <ele>159</ele>
        <time>2020-02-12T16:35:44+01:00</time>
      </trkpt>
      <trkpt lat="43.63315" lon="5.21956">
        <ele>163</ele>
        <time>2020-02-12T16:36:09+01:00</time>
      </trkpt>
      <trkpt lat="43.63295" lon="5.21941">
        <ele>164</ele>
        <time>2020-02-12T16:36:31+01:00</time>
      </trkpt>
      <trkpt lat="43.63282" lon="5.21915">
        <ele>167</ele>
        <time>2020-02-12T16:36:49+01:00</time>
      </trkpt>
      <trkpt lat="43.63277" lon="5.21883">
        <ele>168</ele>
        <time>2020-02-12T16:37:17+01:00</time>
      </trkpt>
      <trkpt lat="43.63274" lon="5.21851">
        <ele>169</ele>
        <time>2020-02-12T16:37:40+01:00</time>
      </trkpt>
      <trkpt lat="43.63265" lon="5.21822">
        <ele>170</ele>
        <time>2020-02-12T16:38:03+01:00</time>
      </trkpt>
      <trkpt lat="43.63254" lon="5.21793">
        <ele>171</ele>
        <time>2020-02-12T16:38:24+01:00</time>
      </trkpt>
      <trkpt lat="43.63244" lon="5.21765">
        <ele>167</ele>
        <time>2020-02-12T16:38:49+01:00</time>
      </trkpt>
      <trkpt lat="43.63231" lon="5.2174">
        <ele>167</ele>
        <time>2020-02-12T16:39:14+01:00</time>
      </trkpt>
      <trkpt lat="43.63214" lon="5.21719">
        <ele>166</ele>
        <time>2020-02-12T16:39:39+01:00</time>
      </trkpt>
      <trkpt lat="43.63198" lon="5.21693">
        <ele>165</ele>
        <time>2020-02-12T16:40:01+01:00</time>
      </trkpt>
      <trkpt lat="43.63185" lon="5.21668">
        <ele>163</ele>
        <time>2020-02-12T16:40:25+01:00</time>
      </trkpt>
      <trkpt lat="43.6317" lon="5.21644">
        <ele>167</ele>
        <time>2020-02-12T16:40:53+01:00</time>
      </trkpt>
      <trkpt lat="43.63162" lon="5.21614">
        <ele>164</ele>
        <time>2020-02-12T16:41:17+01:00</time>
      </trkpt>
      <trkpt lat="43.63155" lon="5.21584">
        <ele>167</ele>
        <time>2020-02-12T16:41:40+01:00</time>
      </trkpt>
      <trkpt lat="43.63149" lon="5.21554">
        <ele>169</ele>
        <time>2020-02-12T16:42:02+01:00</time>
      </trkpt>
      <trkpt lat="43.63132" lon="5.21531">
        <ele>169</ele>
        <time>2020-02-12T16:42:25+01:00</time>
      </trkpt>
      <trkpt lat="43.63122" lon="5.21503">
        <ele>169</ele>
        <time>2020-02-12T16:42:48+01:00</time>
      </trkpt>
      <trkpt lat="43.63106" lon="5.21479">
        <ele>174</ele>
        <time>2020-02-12T16:43:07+01:00</time>
      </trkpt>
      <trkpt lat="43.6309" lon="5.21457">
        <ele>175</ele>
        <time>2020-02-12T16:43:20+01:00</time>
      </trkpt>
      <trkpt lat="43.63082" lon="5.21428">
        <ele>175</ele>
        <time>2020-02-12T16:43:33+01:00</time>
      </trkpt>
      <trkpt lat="43.63075" lon="5.21398">
        <ele>175</ele>
        <time>2020-02-12T16:43:46+01:00</time>
      </trkpt>
      <trkpt lat="43.63076" lon="5.21367">
        <ele>174</ele>
        <time>2020-02-12T16:45:51+01:00</time>
      </trkpt>
      <trkpt lat="43.63079" lon="5.21335">
        <ele>177</ele>
        <time>2020-02-12T16:46:12+01:00</time>
      </trkpt>
      <trkpt lat="43.63089" lon="5.21306">
        <ele>181</ele>
        <time>2020-02-12T16:46:33+01:00</time>
      </trkpt>
      <trkpt lat="43.63105" lon="5.21284">
        <ele>181</ele>
        <time>2020-02-12T16:46:52+01:00</time>
      </trkpt>
      <trkpt lat="43.63106" lon="5.21253">
        <ele>180</ele>
        <time>2020-02-12T16:47:21+01:00</time>
      </trkpt>
      <trkpt lat="43.63106" lon="5.2122">
        <ele>176</ele>
        <time>2020-02-12T16:47:49+01:00</time>
      </trkpt>
      <trkpt lat="43.63108" lon="5.21188">
        <ele>174</ele>
        <time>2020-02-12T16:48:06+01:00</time>
      </trkpt>
      <trkpt lat="43.6311" lon="5.21157">
        <ele>166</ele>
        <time>2020-02-12T16:48:25+01:00</time>
      </trkpt>
      <trkpt lat="43.63117" lon="5.21126">
        <ele>164</ele>
        <time>2020-02-12T16:49:17+01:00</time>
      </trkpt>
      <trkpt lat="43.63125" lon="5.21096">
        <ele>162</ele>
        <time>2020-02-12T16:50:07+01:00</time>
      </trkpt>
      <trkpt lat="43.63137" lon="5.21069">
        <ele>153</ele>
        <time>2020-02-12T16:50:31+01:00</time>
      </trkpt>
      <trkpt lat="43.63139" lon="5.21038">
        <ele>151</ele>
        <time>2020-02-12T16:50:49+01:00</time>
      </trkpt>
      <trkpt lat="43.63143" lon="5.21007">
        <ele>147</ele>
        <time>2020-02-12T16:51:09+01:00</time>
      </trkpt>
      <trkpt lat="43.63154" lon="5.20978">
        <ele>141</ele>
        <time>2020-02-12T16:51:26+01:00</time>
      </trkpt>
      <trkpt lat="43.63142" lon="5.20951">
        <ele>142</ele>
        <time>2020-02-12T16:51:41+01:00</time>
      </trkpt>
      <trkpt lat="43.63123" lon="5.2093">
        <ele>143</ele>
        <time>2020-02-12T16:52:01+01:00</time>
      </trkpt>
      <trkpt lat="43.63114" lon="5.20902">
        <ele>140</ele>
        <time>2020-02-12T16:52:18+01:00</time>
      </trkpt>
      <trkpt lat="43.63103" lon="5.20874">
        <ele>139</ele>
        <time>2020-02-12T16:52:41+01:00</time>
      </trkpt>
      <trkpt lat="43.63093" lon="5.20845">
        <ele>138</ele>
        <time>2020-02-12T16:53:06+01:00</time>
      </trkpt>
      <trkpt lat="43.63078" lon="5.20821">
        <ele>142</ele>
        <time>2020-02-12T16:55:21+01:00</time>
      </trkpt>
      <trkpt lat="43.63074" lon="5.20791">
        <ele>145</ele>
        <time>2020-02-12T16:55:43+01:00</time>
      </trkpt>
      <trkpt lat="43.6308" lon="5.2076">
        <ele>138</ele>
        <time>2020-02-12T16:56:16+01:00</time>
      </trkpt>
      <trkpt lat="43.63086" lon="5.2073">
        <ele>132</ele>
        <time>2020-02-12T16:56:38+01:00</time>
      </trkpt>
      <trkpt lat="43.63094" lon="5.207">
        <ele>131</ele>
        <time>2020-02-12T16:56:56+01:00</time>
      </trkpt>
      <trkpt lat="43.63105" lon="5.20671">
        <ele>130</ele>
        <time>2020-02-12T16:57:24+01:00</time>
      </trkpt>
      <trkpt lat="43.63113" lon="5.20641">
        <ele>131</ele>
        <time>2020-02-12T16:57:43+01:00</time>
      </trkpt>
      <trkpt lat="43.63121" lon="5.2061">
        <ele>131</ele>
        <time>2020-02-12T16:58:02+01:00</time>
      </trkpt>
      <trkpt lat="43.63112" lon="5.20581">
        <ele>132</ele>
        <time>2020-02-12T16:58:27+01:00</time>
      </trkpt>
      <trkpt lat="43.631" lon="5.20555">
        <ele>132</ele>
        <time>2020-02-12T16:58:45+01:00</time>
      </trkpt>
      <trkpt lat="43.63088" lon="5.20526">
        <ele>132</ele>
        <time>2020-02-12T16:59:06+01:00</time>
      </trkpt>
      <trkpt lat="43.63068" lon="5.2051">
        <ele>128</ele>
        <time>2020-02-12T16:59:25+01:00</time>
      </trkpt>
      <trkpt lat="43.63044" lon="5.20508">
        <ele>126</ele>
        <time>2020-02-12T17:00:07+01:00</time>
      </trkpt>
      <trkpt lat="43.63022" lon="5.20508">
        <ele>126</ele>
        <time>2020-02-12T17:00:23+01:00</time>
      </trkpt>
      <trkpt lat="43.62997" lon="5.20514">
        <ele>125</ele>
        <time>2020-02-12T17:00:44+01:00</time>
      </trkpt>
      <trkpt lat="43.62975" lon="5.20523">
        <ele>124</ele>
        <time>2020-02-12T17:01:07+01:00</time>
      </trkpt>
      <trkpt lat="43.62954" lon="5.20535">
        <ele>124</ele>
        <time>2020-02-12T17:01:20+01:00</time>
      </trkpt>
      <trkpt lat="43.62931" lon="5.20542">
        <ele>124</ele>
        <time>2020-02-12T17:01:41+01:00</time>
      </trkpt>
      <trkpt lat="43.62909" lon="5.20549">
        <ele>124</ele>
        <time>2020-02-12T17:02:20+01:00</time>
      </trkpt>
      <trkpt lat="43.62886" lon="5.2054">
        <ele>125</ele>
        <time>2020-02-12T17:03:43+01:00</time>
      </trkpt>
      <trkpt lat="43.62864" lon="5.20526">
        <ele>125</ele>
        <time>2020-02-12T17:04:06+01:00</time>
      </trkpt>
      <trkpt lat="43.62843" lon="5.20516">
        <ele>125</ele>
        <time>2020-02-12T17:04:30+01:00</time>
      </trkpt>
      <trkpt lat="43.6282" lon="5.20508">
        <ele>125</ele>
        <time>2020-02-12T17:04:50+01:00</time>
      </trkpt>
      <trkpt lat="43.62798" lon="5.20522">
        <ele>125</ele>
        <time>2020-02-12T17:05:24+01:00</time>
      </trkpt>
      <trkpt lat="43.62775" lon="5.20525">
        <ele>125</ele>
        <time>2020-02-12T17:05:41+01:00</time>
      </trkpt>
      <trkpt lat="43.62768" lon="5.20556">
        <ele>126</ele>
        <time>2020-02-12T17:06:28+01:00</time>
      </trkpt>
      <trkpt lat="43.62767" lon="5.20587">
        <ele>128</ele>
        <time>2020-02-12T17:06:53+01:00</time>
      </trkpt>
      <trkpt lat="43.62767" lon="5.20619">
        <ele>129</ele>
        <time>2020-02-12T17:07:52+01:00</time>
      </trkpt>
      <trkpt lat="43.62767" lon="5.20586">
        <ele>128</ele>
        <time>2020-02-12T17:13:02+01:00</time>
      </trkpt>
      <trkpt lat="43.62769" lon="5.20555">
        <ele>126</ele>
        <time>2020-02-12T17:13:31+01:00</time>
      </trkpt>
      <trkpt lat="43.6277" lon="5.20524">
        <ele>125</ele>
        <time>2020-02-12T17:14:01+01:00</time>
      </trkpt>
      <trkpt lat="43.62748" lon="5.2052">
        <ele>124</ele>
        <time>2020-02-12T17:14:36+01:00</time>
      </trkpt>
      <trkpt lat="43.62724" lon="5.20519">
        <ele>125</ele>
        <time>2020-02-12T17:15:02+01:00</time>
      </trkpt>
      <trkpt lat="43.62701" lon="5.20518">
        <ele>126</ele>
        <time>2020-02-12T17:15:28+01:00</time>
      </trkpt>
      <trkpt lat="43.6268" lon="5.20506">
        <ele>124</ele>
        <time>2020-02-12T17:15:46+01:00</time>
      </trkpt>
      <trkpt lat="43.62658" lon="5.20495">
        <ele>121</ele>
        <time>2020-02-12T17:16:07+01:00</time>
      </trkpt>
      <trkpt lat="43.62636" lon="5.20491">
        <ele>121</ele>
        <time>2020-02-12T17:16:30+01:00</time>
      </trkpt>
      <trkpt lat="43.62612" lon="5.20489">
        <ele>122</ele>
        <time>2020-02-12T17:16:52+01:00</time>
      </trkpt>
      <trkpt lat="43.6259" lon="5.20487">
        <ele>123</ele>
        <time>2020-02-12T17:17:26+01:00</time>
      </trkpt>
      <trkpt lat="43.62567" lon="5.20493">
        <ele>123</ele>
        <time>2020-02-12T17:17:48+01:00</time>
      </trkpt>
      <trkpt lat="43.62543" lon="5.2049">
        <ele>123</ele>
        <time>2020-02-12T17:18:17+01:00</time>
      </trkpt>
    </trkseg>
  </trk>
</gpx>